createdAt,value
2023-09-03T00:00:39.393Z,74.41
2023-09-03T00:03:07.068Z,74.28
2023-09-03T00:05:34.422Z,74.55
2023-09-03T00:08:01.647Z,74.29
2023-09-03T00:10:29.092Z,74.26
2023-09-03T00:12:55.791Z,74.19
2023-09-03T00:15:26.700Z,74.70
2023-09-03T00:17:53.471Z,74.26
2023-09-03T00:20:20.407Z,74.55
2023-09-03T00:22:47.298Z,74.76
2023-09-03T00:25:14.099Z,74.66
2023-09-03T00:27:40.805Z,74.82
2023-09-03T00:30:08.280Z,74.58
2023-09-03T00:32:34.964Z,74.67
2023-09-03T00:35:01.688Z,74.55
2023-09-03T00:37:28.350Z,74.86
2023-09-03T00:39:55.125Z,74.84
2023-09-03T00:42:21.696Z,74.81
2023-09-03T00:44:48.908Z,74.79
2023-09-03T00:47:18.484Z,74.62
2023-09-03T00:49:45.416Z,75.14
2023-09-03T00:52:12.669Z,75.01
2023-09-03T00:54:39.854Z,75.30
2023-09-03T00:57:06.564Z,74.88
2023-09-03T00:59:34.647Z,75.28
2023-09-03T01:02:01.421Z,74.94
2023-09-03T01:04:28.212Z,75.46
2023-09-03T01:06:55.387Z,75.38
2023-09-03T01:09:22.143Z,75.01
2023-09-03T01:11:59.048Z,75.11
2023-09-03T01:14:33.297Z,75.19
2023-09-03T01:17:33.014Z,75.40
2023-09-03T01:20:13.316Z,75.24
2023-09-03T01:23:21.093Z,75.36
2023-09-03T01:26:13.087Z,75.54
2023-09-03T01:28:42.070Z,75.41
2023-09-03T01:31:17.955Z,75.52
2023-09-03T01:33:46.974Z,75.39
2023-09-03T01:36:15.038Z,75.61
2023-09-03T01:38:42.098Z,75.26
2023-09-03T01:41:09.347Z,75.34
2023-09-03T01:43:36.106Z,75.67
2023-09-03T01:46:08.899Z,75.43
2023-09-03T01:49:13.348Z,75.61
2023-09-03T01:51:57.189Z,75.90
2023-09-03T01:54:30.002Z,75.65
2023-09-03T01:57:05.743Z,75.66
2023-09-03T01:59:42.348Z,75.71
2023-09-03T02:02:10.790Z,75.85
2023-09-03T02:04:37.516Z,75.88
2023-09-03T02:07:04.359Z,75.78
2023-09-03T02:09:31.275Z,76.22
2023-09-03T02:11:58.660Z,75.87
2023-09-03T02:14:25.428Z,76.19
2023-09-03T02:16:52.418Z,75.70
2023-09-03T02:19:19.066Z,75.93
2023-09-03T02:21:46.302Z,76.05
2023-09-03T02:24:13.181Z,75.76
2023-09-03T02:26:44.957Z,75.72
2023-09-03T02:29:12.496Z,75.70
2023-09-03T02:31:39.525Z,75.86
2023-09-03T02:34:07.394Z,75.92
2023-09-03T02:36:35.503Z,75.91
2023-09-03T02:39:04.224Z,75.83
2023-09-03T02:41:31.173Z,75.89
2023-09-03T02:44:02.465Z,76.14
2023-09-03T02:46:29.485Z,76.13
2023-09-03T02:48:56.171Z,76.35
2023-09-03T02:51:22.830Z,76.31
2023-09-03T02:53:52.436Z,76.09
2023-09-03T02:56:19.320Z,76.26
2023-09-03T02:58:48.091Z,76.32
2023-09-03T03:01:16.386Z,76.34
2023-09-03T03:03:43.040Z,76.24
2023-09-03T03:06:10.409Z,76.23
2023-09-03T03:08:37.274Z,76.08
2023-09-03T03:11:12.164Z,76.67
2023-09-03T03:13:40.913Z,76.30
2023-09-03T03:16:13.005Z,76.18
2023-09-03T03:18:41.480Z,76.21
2023-09-03T03:21:11.937Z,76.38
2023-09-03T03:23:39.543Z,76.34
2023-09-03T03:26:06.401Z,76.47
2023-09-03T03:28:34.742Z,76.63
2023-09-03T03:31:12.234Z,76.29
2023-09-03T03:33:40.524Z,76.30
2023-09-03T03:36:08.306Z,76.21
2023-09-03T03:38:35.406Z,76.17
2023-09-03T03:41:10.267Z,76.13
2023-09-03T03:43:44.979Z,76.31
2023-09-03T03:46:15.250Z,76.47
2023-09-03T03:48:42.732Z,76.29
2023-09-03T03:51:09.734Z,76.46
2023-09-03T03:53:36.972Z,76.64
2023-09-03T03:56:06.052Z,76.33
2023-09-03T03:58:37.814Z,76.13
2023-09-03T04:01:18.541Z,76.27
2023-09-03T04:03:47.054Z,76.44
2023-09-03T04:06:14.251Z,76.75
2023-09-03T04:08:41.510Z,76.79
2023-09-03T04:11:10.051Z,76.41
2023-09-03T04:13:38.015Z,76.84
2023-09-03T04:16:09.104Z,76.67
2023-09-03T04:18:35.911Z,76.42
2023-09-03T04:21:02.614Z,76.43
2023-09-03T04:23:29.787Z,76.45
2023-09-03T04:25:58.446Z,76.43
2023-09-03T04:28:25.839Z,76.48
2023-09-03T04:31:05.662Z,76.60
2023-09-03T04:33:32.492Z,76.53
2023-09-03T04:36:00.990Z,76.49
2023-09-03T04:38:28.607Z,76.50
2023-09-03T04:40:56.488Z,76.79
2023-09-03T04:43:24.360Z,76.90
2023-09-03T04:45:53.024Z,76.69
2023-09-03T04:48:21.720Z,76.68
2023-09-03T04:50:49.110Z,76.92
2023-09-03T04:53:15.908Z,76.43
2023-09-03T04:55:43.101Z,76.29
2023-09-03T04:58:10.092Z,76.44
2023-09-03T05:00:37.565Z,76.69
2023-09-03T05:03:06.290Z,76.66
2023-09-03T05:05:40.966Z,76.89
2023-09-03T05:08:09.660Z,76.90
2023-09-03T05:10:36.909Z,76.68
2023-09-03T05:13:08.272Z,76.87
2023-09-03T05:15:35.479Z,76.72
2023-09-03T05:18:02.833Z,76.85
2023-09-03T05:20:30.074Z,76.59
2023-09-03T05:22:56.788Z,76.57
2023-09-03T05:25:23.556Z,76.52
2023-09-03T05:27:50.232Z,76.83
2023-09-03T05:30:16.991Z,76.46
2023-09-03T05:32:43.850Z,76.63
2023-09-03T05:35:11.200Z,76.41
2023-09-03T05:37:37.910Z,76.09
2023-09-03T05:40:05.999Z,76.55
2023-09-03T05:42:33.168Z,76.26
2023-09-03T05:45:00.365Z,76.19
2023-09-03T05:47:27.395Z,76.26
2023-09-03T05:49:56.149Z,76.37
2023-09-03T05:52:22.795Z,75.79
2023-09-03T05:54:49.579Z,76.26
2023-09-03T05:57:16.298Z,75.81
2023-09-03T05:59:43.008Z,75.75
2023-09-03T06:02:09.679Z,75.94
2023-09-03T06:04:37.154Z,75.57
2023-09-03T06:07:05.558Z,75.75
2023-09-03T06:09:32.377Z,75.55
2023-09-03T06:11:59.192Z,75.23
2023-09-03T06:14:25.840Z,74.91
2023-09-03T06:16:53.078Z,75.05
2023-09-03T06:19:20.366Z,74.80
2023-09-03T06:21:46.964Z,74.74
2023-09-03T06:24:13.662Z,74.69
2023-09-03T06:26:40.407Z,74.43
2023-09-03T06:29:07.110Z,74.50
2023-09-03T06:31:33.885Z,74.56
2023-09-03T06:34:00.671Z,74.32
2023-09-03T06:36:27.371Z,74.33
2023-09-03T06:38:53.993Z,74.23
2023-09-03T06:41:20.716Z,74.10
2023-09-03T06:43:47.649Z,73.82
2023-09-03T06:46:14.494Z,73.55
2023-09-03T06:48:41.268Z,73.24
2023-09-03T06:51:08.114Z,73.40
2023-09-03T06:53:34.801Z,73.07
2023-09-03T06:56:01.609Z,72.71
2023-09-03T06:58:28.415Z,72.54
2023-09-03T07:00:56.609Z,71.88
2023-09-03T07:03:23.696Z,70.96
2023-09-03T07:05:50.484Z,69.52
2023-09-03T07:08:17.343Z,68.38
2023-09-03T07:10:44.451Z,66.71
2023-09-03T07:13:12.167Z,64.57
2023-09-03T07:15:38.951Z,61.97
2023-09-03T07:18:06.077Z,60.41
2023-09-03T07:20:32.902Z,58.28
2023-09-03T07:22:59.578Z,56.56
2023-09-03T07:25:26.526Z,53.80
2023-09-03T07:27:53.306Z,51.65
2023-09-03T07:30:20.034Z,50.12
2023-09-03T07:32:46.801Z,48.21
2023-09-03T07:35:14.082Z,46.32
2023-09-03T07:37:40.783Z,45.47
2023-09-03T07:40:09.554Z,44.31
2023-09-03T07:42:36.376Z,43.47
2023-09-03T07:45:03.626Z,42.70
2023-09-03T07:47:30.299Z,42.34
2023-09-03T07:49:57.132Z,42.72
2023-09-03T07:52:23.837Z,43.17
2023-09-03T07:54:50.665Z,43.96
2023-09-03T07:57:17.871Z,44.72
2023-09-03T07:59:44.581Z,45.52
2023-09-03T08:02:11.490Z,45.38
2023-09-03T08:04:38.260Z,44.72
2023-09-03T08:07:05.104Z,44.35
2023-09-03T08:09:32.276Z,43.48
2023-09-03T08:11:58.945Z,42.95
2023-09-03T08:14:25.803Z,42.28
2023-09-03T08:16:52.641Z,42.31
2023-09-03T08:19:19.387Z,41.96
2023-09-03T08:21:46.448Z,42.15
2023-09-03T08:24:13.291Z,41.74
2023-09-03T08:26:40.167Z,42.91
2023-09-03T08:29:07.080Z,43.12
2023-09-03T08:31:34.263Z,44.43
2023-09-03T08:34:01.036Z,44.96
2023-09-03T08:36:27.649Z,46.04
2023-09-03T08:38:54.712Z,46.91
2023-09-03T08:41:23.933Z,47.92
2023-09-03T08:43:58.747Z,48.18
2023-09-03T08:46:30.004Z,49.21
2023-09-03T08:48:57.580Z,49.72
2023-09-03T08:51:25.099Z,50.61
2023-09-03T08:53:55.084Z,51.43
2023-09-03T08:56:21.760Z,51.92
2023-09-03T08:58:48.478Z,52.52
2023-09-03T09:01:17.519Z,52.62
2023-09-03T09:03:45.881Z,53.35
2023-09-03T09:06:13.680Z,53.51
2023-09-03T09:08:42.020Z,54.03
2023-09-03T09:11:15.086Z,54.01
2023-09-03T09:13:48.573Z,54.74
2023-09-03T09:16:15.357Z,54.82
2023-09-03T09:18:42.336Z,54.97
2023-09-03T09:21:09.340Z,54.85
2023-09-03T09:23:36.220Z,54.82
2023-09-03T09:26:15.781Z,54.53
2023-09-03T09:28:58.370Z,54.52
2023-09-03T09:31:32.626Z,54.51
2023-09-03T09:34:01.396Z,54.73
2023-09-03T09:36:28.542Z,55.29
2023-09-03T09:39:06.477Z,55.31
2023-09-03T09:41:38.616Z,55.28
2023-09-03T09:44:10.969Z,55.21
2023-09-03T09:46:37.810Z,55.19
2023-09-03T09:49:04.570Z,55.54
2023-09-03T09:51:32.432Z,55.34
2023-09-03T09:54:04.265Z,55.54
2023-09-03T09:56:32.476Z,55.29
2023-09-03T09:58:59.714Z,55.66
2023-09-03T10:01:28.578Z,56.00
2023-09-03T10:03:56.104Z,55.90
2023-09-03T10:06:24.419Z,55.58
2023-09-03T10:08:53.059Z,55.25
2023-09-03T10:11:20.967Z,55.24
2023-09-03T10:13:51.017Z,54.92
2023-09-03T10:16:21.321Z,54.57
2023-09-03T10:18:50.368Z,54.70
2023-09-03T10:21:50.937Z,54.81
2023-09-03T10:24:17.909Z,54.82
2023-09-03T10:26:49.595Z,54.59
2023-09-03T10:29:20.677Z,54.42
2023-09-03T10:31:49.734Z,54.43
2023-09-03T10:34:16.927Z,54.72
2023-09-03T10:37:03.193Z,54.33
2023-09-03T10:39:30.131Z,54.35
2023-09-03T10:42:15.750Z,54.35
2023-09-03T10:44:43.658Z,54.79
2023-09-03T10:47:12.811Z,54.40
2023-09-03T10:49:44.394Z,53.80
2023-09-03T10:52:29.808Z,53.41
2023-09-03T10:55:19.495Z,52.94
2023-09-03T10:58:11.457Z,52.73
2023-09-03T11:00:38.619Z,52.13
2023-09-03T11:03:19.750Z,52.04
2023-09-03T11:06:24.885Z,50.06
2023-09-03T11:09:11.824Z,50.14
2023-09-03T11:11:41.761Z,50.23
2023-09-03T11:14:08.979Z,50.63
2023-09-03T11:16:38.022Z,50.43
2023-09-03T11:19:08.640Z,49.90
2023-09-03T11:21:37.437Z,49.74
2023-09-03T11:24:05.229Z,49.83
2023-09-03T11:26:36.124Z,49.85
2023-09-03T11:29:03.792Z,49.88
2023-09-03T11:31:31.266Z,49.74
2023-09-03T11:33:58.185Z,49.98
2023-09-03T11:36:27.965Z,50.09
2023-09-03T11:38:56.654Z,50.15
2023-09-03T11:41:23.730Z,50.58
2023-09-03T11:43:50.604Z,50.39
2023-09-03T11:46:19.248Z,50.47
2023-09-03T11:48:52.111Z,49.87
2023-09-03T11:51:29.874Z,49.62
2023-09-03T11:53:57.717Z,49.13
2023-09-03T11:56:27.198Z,48.97
2023-09-03T11:59:06.131Z,48.90
2023-09-03T12:01:33.357Z,48.61
2023-09-03T12:04:00.182Z,49.11
2023-09-03T12:06:27.950Z,49.57
2023-09-03T12:08:54.615Z,49.87
2023-09-03T12:11:29.625Z,49.43
2023-09-03T12:13:56.365Z,49.38
2023-09-03T12:16:25.258Z,49.60
2023-09-03T12:18:59.753Z,49.82
2023-09-03T12:21:37.128Z,49.99
2023-09-03T12:24:06.326Z,50.35
2023-09-03T12:26:36.227Z,50.36
2023-09-03T12:29:20.371Z,50.32
2023-09-03T12:31:47.041Z,49.74
2023-09-03T12:34:15.352Z,49.46
2023-09-03T12:37:02.860Z,48.54
2023-09-03T12:39:43.184Z,48.84
2023-09-03T12:42:11.451Z,48.48
2023-09-03T12:44:42.394Z,48.02
2023-09-03T12:47:10.411Z,48.34
2023-09-03T12:49:37.132Z,48.26
2023-09-03T12:52:04.007Z,48.26
2023-09-03T12:54:32.797Z,48.37
2023-09-03T12:57:01.761Z,48.60
2023-09-03T12:59:28.640Z,48.78
2023-09-03T13:01:55.484Z,48.40
2023-09-03T13:04:22.408Z,48.17
2023-09-03T13:06:49.189Z,47.38
2023-09-03T13:09:15.850Z,47.74
2023-09-03T13:11:42.742Z,47.79
2023-09-03T13:14:09.464Z,47.91
2023-09-03T13:16:37.347Z,47.87
2023-09-03T13:19:04.265Z,48.24
2023-09-03T13:21:36.886Z,47.49
2023-09-03T13:24:04.518Z,46.83
2023-09-03T13:26:31.404Z,47.01
2023-09-03T13:28:58.333Z,47.14
2023-09-03T13:31:27.167Z,47.13
2023-09-03T13:33:54.288Z,47.08
2023-09-03T13:36:21.846Z,46.83
2023-09-03T13:38:50.948Z,47.20
2023-09-03T13:41:17.773Z,46.46
2023-09-03T13:43:58.942Z,46.87
2023-09-03T13:46:27.217Z,46.83
2023-09-03T13:48:54.200Z,46.64
2023-09-03T13:51:22.459Z,46.36
2023-09-03T13:53:53.222Z,46.49
2023-09-03T13:56:20.018Z,47.10
2023-09-03T13:58:46.674Z,47.34
2023-09-03T14:01:13.453Z,47.40
2023-09-03T14:03:40.143Z,47.77
2023-09-03T14:06:08.369Z,48.30
2023-09-03T14:08:35.493Z,48.69
2023-09-03T14:11:02.249Z,48.94
2023-09-03T14:13:29.204Z,48.84
2023-09-03T14:15:57.262Z,49.06
2023-09-03T14:18:25.530Z,49.54
2023-09-03T14:20:57.072Z,49.58
2023-09-03T14:23:25.404Z,49.64
2023-09-03T14:25:53.477Z,49.45
2023-09-03T14:28:21.380Z,49.49
2023-09-03T14:30:50.386Z,48.96
2023-09-03T14:33:18.918Z,48.90
2023-09-03T14:35:48.481Z,48.80
2023-09-03T14:38:16.630Z,48.32
2023-09-03T14:40:50.586Z,47.70
2023-09-03T14:43:17.416Z,47.81
2023-09-03T14:45:44.092Z,48.05
2023-09-03T14:48:10.860Z,48.50
2023-09-03T14:50:37.729Z,48.62
2023-09-03T14:53:04.564Z,48.81
2023-09-03T14:55:31.192Z,48.91
2023-09-03T14:57:57.958Z,49.30
2023-09-03T15:00:24.594Z,49.06
2023-09-03T15:02:51.474Z,49.05
2023-09-03T15:05:18.425Z,49.26
2023-09-03T15:07:45.429Z,49.25
2023-09-03T15:10:12.562Z,48.95
2023-09-03T15:12:39.349Z,49.29
2023-09-03T15:15:06.377Z,49.33
2023-09-03T15:17:33.092Z,49.31
2023-09-03T15:20:00.920Z,49.99
2023-09-03T15:22:27.652Z,49.92
2023-09-03T15:24:54.378Z,49.88
2023-09-03T15:27:21.520Z,50.10
2023-09-03T15:29:49.656Z,50.07
2023-09-03T15:32:17.504Z,50.28
2023-09-03T15:34:45.827Z,49.62
2023-09-03T15:37:14.535Z,49.36
2023-09-03T15:39:42.396Z,49.76
2023-09-03T15:42:11.739Z,49.46
2023-09-03T15:44:40.433Z,49.90
2023-09-03T15:47:08.342Z,49.63
2023-09-03T15:49:37.095Z,49.66
2023-09-03T15:52:09.400Z,49.60
2023-09-03T15:54:39.235Z,49.65
2023-09-03T15:57:07.087Z,49.80
2023-09-03T15:59:35.189Z,49.79
2023-09-03T16:02:03.263Z,49.58
2023-09-03T16:04:31.768Z,49.02
2023-09-03T16:07:00.026Z,49.28
2023-09-03T16:09:27.646Z,49.13
2023-09-03T16:11:54.325Z,48.59
2023-09-03T16:14:21.023Z,48.25
2023-09-03T16:16:47.910Z,48.40
2023-09-03T16:19:14.555Z,48.30
2023-09-03T16:21:41.491Z,48.81
2023-09-03T16:24:08.483Z,49.05
2023-09-03T16:26:35.209Z,48.92
2023-09-03T16:29:01.884Z,48.88
2023-09-03T16:31:28.751Z,48.93
2023-09-03T16:33:55.412Z,49.39
2023-09-03T16:36:22.040Z,49.82
2023-09-03T16:38:48.915Z,49.97
2023-09-03T16:41:15.703Z,50.15
2023-09-03T16:43:43.896Z,50.20
2023-09-03T16:46:11.739Z,50.27
2023-09-03T16:48:38.405Z,50.39
2023-09-03T16:51:05.136Z,50.32
2023-09-03T16:53:31.974Z,50.86
2023-09-03T16:56:01.937Z,51.11
2023-09-03T16:58:28.550Z,51.63
2023-09-03T17:00:56.946Z,52.10
2023-09-03T17:03:26.182Z,52.60
2023-09-03T17:05:53.197Z,53.29
2023-09-03T17:08:20.342Z,53.85
2023-09-03T17:10:47.395Z,54.40
2023-09-03T17:13:14.204Z,54.47
2023-09-03T17:15:41.742Z,55.29
2023-09-03T17:18:09.489Z,55.72
2023-09-03T17:20:42.041Z,55.90
2023-09-03T17:23:09.504Z,56.31
2023-09-03T17:25:36.919Z,56.54
2023-09-03T17:28:03.896Z,57.03
2023-09-03T17:30:30.802Z,57.52
2023-09-03T17:32:57.680Z,57.58
2023-09-03T17:35:24.406Z,57.83
2023-09-03T17:37:51.172Z,58.19
2023-09-03T17:40:20.785Z,58.67
2023-09-03T17:42:47.869Z,58.78
2023-09-03T17:45:15.220Z,58.92
2023-09-03T17:47:43.962Z,59.35
2023-09-03T17:50:10.909Z,59.43
2023-09-03T17:52:37.770Z,59.89
2023-09-03T17:55:04.891Z,60.02
2023-09-03T17:57:34.570Z,60.44
2023-09-03T18:00:01.957Z,60.75
2023-09-03T18:02:28.866Z,60.83
2023-09-03T18:04:56.416Z,61.23
2023-09-03T18:07:23.218Z,61.55
2023-09-03T18:09:49.897Z,61.83
2023-09-03T18:12:16.734Z,62.16
2023-09-03T18:14:43.567Z,62.34
2023-09-03T18:17:11.301Z,62.36
2023-09-03T18:19:38.041Z,62.85
2023-09-03T18:22:05.226Z,62.99
2023-09-03T18:24:33.604Z,63.26
2023-09-03T18:27:00.311Z,63.25
2023-09-03T18:29:27.246Z,63.60
2023-09-03T18:31:54.031Z,63.68
2023-09-03T18:34:20.777Z,63.67
2023-09-03T18:36:48.203Z,64.20
2023-09-03T18:39:14.992Z,64.44
2023-09-03T18:41:41.712Z,64.58
2023-09-03T18:44:08.922Z,64.85
2023-09-03T18:46:35.761Z,65.30
2023-09-03T18:49:02.516Z,65.14
2023-09-03T18:51:29.849Z,65.56
2023-09-03T18:53:57.292Z,65.44
2023-09-03T18:56:24.117Z,65.97
2023-09-03T18:58:50.734Z,66.06
2023-09-03T19:01:20.579Z,66.38
2023-09-03T19:03:50.514Z,66.43
2023-09-03T19:06:18.818Z,66.47
2023-09-03T19:08:45.756Z,66.80
2023-09-03T19:11:12.694Z,66.66
2023-09-03T19:13:40.239Z,66.90
2023-09-03T19:16:07.006Z,67.22
2023-09-03T19:18:35.270Z,67.16
2023-09-03T19:21:02.394Z,67.33
2023-09-03T19:23:29.058Z,67.64
2023-09-03T19:25:55.832Z,67.65
2023-09-03T19:28:22.993Z,67.73
2023-09-03T19:30:52.006Z,67.75
2023-09-03T19:33:20.828Z,68.04
2023-09-03T19:35:57.527Z,68.19
2023-09-03T19:38:32.724Z,68.41
2023-09-03T19:41:01.695Z,68.64
2023-09-03T19:43:28.662Z,68.56
2023-09-03T19:45:57.476Z,68.91
2023-09-03T19:48:26.563Z,69.07
2023-09-03T19:50:56.726Z,68.93
2023-09-03T19:53:23.730Z,69.36
2023-09-03T19:55:50.767Z,69.43
2023-09-03T19:58:18.059Z,69.35
2023-09-03T20:00:45.538Z,69.44
2023-09-03T20:03:13.451Z,69.57
2023-09-03T20:05:42.032Z,69.59
2023-09-03T20:08:09.564Z,69.65
2023-09-03T20:10:40.186Z,69.60
2023-09-03T20:13:09.007Z,69.81
2023-09-03T20:15:38.871Z,70.02
2023-09-03T20:18:06.365Z,70.10
2023-09-03T20:20:36.550Z,70.36
2023-09-03T20:23:03.529Z,70.04
2023-09-03T20:25:30.422Z,70.21
2023-09-03T20:27:57.125Z,70.21
2023-09-03T20:30:23.827Z,70.34
2023-09-03T20:32:50.840Z,70.66
2023-09-03T20:35:20.109Z,70.56
2023-09-03T20:37:47.077Z,70.75
2023-09-03T20:40:13.893Z,70.96
2023-09-03T20:42:40.786Z,70.76
2023-09-03T20:45:08.044Z,70.98
2023-09-03T20:47:34.985Z,71.15
2023-09-03T20:50:02.277Z,70.89
2023-09-03T20:52:29.403Z,71.16
2023-09-03T20:54:56.192Z,71.24
2023-09-03T20:57:22.986Z,71.19
2023-09-03T20:59:49.667Z,71.26
2023-09-03T21:02:16.421Z,71.63
2023-09-03T21:04:43.458Z,71.61
2023-09-03T21:07:10.182Z,71.43
2023-09-03T21:09:37.824Z,71.83
